sensor_id;sensor_type;location;lat;lon;timestamp;temperature;humidity
14755;DHT22;7469;50.906;6.952;2023-01-10T00:01:39;7.00;99.90
14755;DHT22;7469;50.906;6.952;2023-01-10T00:04:07;7.00;99.90
14755;DHT22;7469;50.906;6.952;2023-01-10T00:06:37;7.00;99.90
14755;DHT22;7469;50.906;6.952;2023-01-10T00:09:05;7.00;99.90
14755;DHT22;7469;50.906;6.952;2023-01-10T00:11:33;7.00;99.90
14755;DHT22;7469;50.906;6.952;2023-01-10T00:14:18;7.00;99.90
14755;DHT22;7469;50.906;6.952;2023-01-10T00:16:46;7.00;99.90
14755;DHT22;7469;50.906;6.952;2023-01-10T00:19:14;7.00;99.90
14755;DHT22;7469;50.906;6.952;2023-01-10T00:21:44;7.00;99.90
14755;DHT22;7469;50.906;6.952;2023-01-10T00:24:13;7.00;99.90
14755;DHT22;7469;50.906;6.952;2023-01-10T00:26:46;7.00;99.90
14755;DHT22;7469;50.906;6.952;2023-01-10T00:29:18;7.00;99.90
14755;DHT22;7469;50.906;6.952;2023-01-10T00:31:47;7.00;99.90
14755;DHT22;7469;50.906;6.952;2023-01-10T00:34:15;7.00;99.90
14755;DHT22;7469;50.906;6.952;2023-01-10T00:36:45;7.00;99.90
14755;DHT22;7469;50.906;6.952;2023-01-10T00:39:14;7.00;99.90
14755;DHT22;7469;50.906;6.952;2023-01-10T00:41:45;7.00;99.90
14755;DHT22;7469;50.906;6.952;2023-01-10T00:44:30;7.00;99.90
14755;DHT22;7469;50.906;6.952;2023-01-10T00:46:58;7.00;99.90
14755;DHT22;7469;50.906;6.952;2023-01-10T00:49:26;7.00;99.90
14755;DHT22;7469;50.906;6.952;2023-01-10T00:51:56;7.00;99.90
14755;DHT22;7469;50.906;6.952;2023-01-10T00:54:25;7.00;99.90
14755;DHT22;7469;50.906;6.952;2023-01-10T00:56:53;7.00;99.90
14755;DHT22;7469;50.906;6.952;2023-01-10T00:59:21;7.00;99.90
14755;DHT22;7469;50.906;6.952;2023-01-10T01:01:49;7.00;99.90
14755;DHT22;7469;50.906;6.952;2023-01-10T01:04:18;7.10;99.90
14755;DHT22;7469;50.906;6.952;2023-01-10T01:06:46;7.10;99.90
14755;DHT22;7469;50.906;6.952;2023-01-10T01:09:16;7.10;99.90
14755;DHT22;7469;50.906;6.952;2023-01-10T01:11:44;7.00;99.90
14755;DHT22;7469;50.906;6.952;2023-01-10T01:14:12;7.00;99.90
14755;DHT22;7469;50.906;6.952;2023-01-10T01:16:40;7.00;99.90
14755;DHT22;7469;50.906;6.952;2023-01-10T01:19:08;7.10;99.90
14755;DHT22;7469;50.906;6.952;2023-01-10T01:21:36;7.10;99.90
14755;DHT22;7469;50.906;6.952;2023-01-10T01:24:05;7.10;99.90
14755;DHT22;7469;50.906;6.952;2023-01-10T01:26:34;7.10;99.90
14755;DHT22;7469;50.906;6.952;2023-01-10T01:29:02;7.10;99.90
14755;DHT22;7469;50.906;6.952;2023-01-10T01:31:30;7.10;99.90
14755;DHT22;7469;50.906;6.952;2023-01-10T01:33:58;7.10;99.90
14755;DHT22;7469;50.906;6.952;2023-01-10T01:36:26;7.10;99.90
14755;DHT22;7469;50.906;6.952;2023-01-10T01:38:54;7.10;99.90
14755;DHT22;7469;50.906;6.952;2023-01-10T01:41:22;7.00;99.90
14755;DHT22;7469;50.906;6.952;2023-01-10T01:44:16;7.00;99.90
14755;DHT22;7469;50.906;6.952;2023-01-10T01:46:49;7.00;99.90
14755;DHT22;7469;50.906;6.952;2023-01-10T01:49:21;6.90;99.90
14755;DHT22;7469;50.906;6.952;2023-01-10T01:51:55;6.90;99.90
14755;DHT22;7469;50.906;6.952;2023-01-10T01:54:26;6.90;99.90
14755;DHT22;7469;50.906;6.952;2023-01-10T01:56:59;6.90;99.90
14755;DHT22;7469;50.906;6.952;2023-01-10T01:59:32;6.90;99.90
14755;DHT22;7469;50.906;6.952;2023-01-10T02:02:04;6.90;99.90
14755;DHT22;7469;50.906;6.952;2023-01-10T02:04:39;6.90;99.90
14755;DHT22;7469;50.906;6.952;2023-01-10T02:07:09;6.90;99.90
14755;DHT22;7469;50.906;6.952;2023-01-10T02:09:42;6.90;99.90
14755;DHT22;7469;50.906;6.952;2023-01-10T02:12:13;6.90;99.90
14755;DHT22;7469;50.906;6.952;2023-01-10T02:14:44;6.90;99.90
14755;DHT22;7469;50.906;6.952;2023-01-10T02:17:13;6.80;99.90
14755;DHT22;7469;50.906;6.952;2023-01-10T02:19:49;6.80;99.90
14755;DHT22;7469;50.906;6.952;2023-01-10T02:22:51;6.80;99.90
14755;DHT22;7469;50.906;6.952;2023-01-10T02:25:51;6.90;99.90
14755;DHT22;7469;50.906;6.952;2023-01-10T02:28:46;6.80;99.90
14755;DHT22;7469;50.906;6.952;2023-01-10T02:31:38;6.90;99.90
14755;DHT22;7469;50.906;6.952;2023-01-10T02:34:15;6.80;99.90
14755;DHT22;7469;50.906;6.952;2023-01-10T02:36:52;6.80;99.90
14755;DHT22;7469;50.906;6.952;2023-01-10T02:39:30;6.80;99.90
14755;DHT22;7469;50.906;6.952;2023-01-10T02:42:06;6.70;99.90
14755;DHT22;7469;50.906;6.952;2023-01-10T02:44:39;6.70;99.90
14755;DHT22;7469;50.906;6.952;2023-01-10T02:47:12;6.60;99.90
14755;DHT22;7469;50.906;6.952;2023-01-10T02:49:42;6.70;99.90
14755;DHT22;7469;50.906;6.952;2023-01-10T02:52:13;6.60;99.90
14755;DHT22;7469;50.906;6.952;2023-01-10T02:54:44;6.70;99.90
14755;DHT22;7469;50.906;6.952;2023-01-10T02:57:29;6.60;99.90
14755;DHT22;7469;50.906;6.952;2023-01-10T03:00:12;6.60;99.90
14755;DHT22;7469;50.906;6.952;2023-01-10T03:02:55;6.60;99.90
14755;DHT22;7469;50.906;6.952;2023-01-10T03:05:38;6.60;99.90
14755;DHT22;7469;50.906;6.952;2023-01-10T03:08:17;6.60;99.90
14755;DHT22;7469;50.906;6.952;2023-01-10T03:10:53;6.60;99.90
14755;DHT22;7469;50.906;6.952;2023-01-10T03:13:26;6.70;99.90
14755;DHT22;7469;50.906;6.952;2023-01-10T03:15:56;6.70;99.90
14755;DHT22;7469;50.906;6.952;2023-01-10T03:18:32;6.60;99.90
14755;DHT22;7469;50.906;6.952;2023-01-10T03:21:05;6.60;99.90
14755;DHT22;7469;50.906;6.952;2023-01-10T03:23:35;6.60;99.90
14755;DHT22;7469;50.906;6.952;2023-01-10T03:26:05;6.60;99.90
14755;DHT22;7469;50.906;6.952;2023-01-10T03:28:38;6.60;99.90
14755;DHT22;7469;50.906;6.952;2023-01-10T03:31:12;6.50;99.90
14755;DHT22;7469;50.906;6.952;2023-01-10T03:33:41;6.50;99.90
14755;DHT22;7469;50.906;6.952;2023-01-10T03:36:16;6.50;99.90
14755;DHT22;7469;50.906;6.952;2023-01-10T03:38:51;6.50;99.90
14755;DHT22;7469;50.906;6.952;2023-01-10T03:41:32;6.50;99.90
14755;DHT22;7469;50.906;6.952;2023-01-10T03:44:10;6.50;99.90
14755;DHT22;7469;50.906;6.952;2023-01-10T03:47:01;6.50;99.90
14755;DHT22;7469;50.906;6.952;2023-01-10T03:49:34;6.50;99.90
14755;DHT22;7469;50.906;6.952;2023-01-10T03:52:07;6.50;99.90
14755;DHT22;7469;50.906;6.952;2023-01-10T03:54:37;6.50;99.90
14755;DHT22;7469;50.906;6.952;2023-01-10T03:57:05;6.50;99.90
14755;DHT22;7469;50.906;6.952;2023-01-10T03:59:33;6.50;99.90
14755;DHT22;7469;50.906;6.952;2023-01-10T04:02:01;6.50;99.90
14755;DHT22;7469;50.906;6.952;2023-01-10T04:04:29;6.50;99.90
14755;DHT22;7469;50.906;6.952;2023-01-10T04:06:57;6.50;99.90
14755;DHT22;7469;50.906;6.952;2023-01-10T04:09:27;6.50;99.90
14755;DHT22;7469;50.906;6.952;2023-01-10T04:11:55;6.50;99.90
14755;DHT22;7469;50.906;6.952;2023-01-10T04:14:23;6.50;99.90
14755;DHT22;7469;50.906;6.952;2023-01-10T04:16:50;6.50;99.90
14755;DHT22;7469;50.906;6.952;2023-01-10T04:19:18;6.40;99.90
14755;DHT22;7469;50.906;6.952;2023-01-10T04:21:46;6.40;99.90
14755;DHT22;7469;50.906;6.952;2023-01-10T04:24:14;6.40;99.90
14755;DHT22;7469;50.906;6.952;2023-01-10T04:26:43;6.40;99.90
14755;DHT22;7469;50.906;6.952;2023-01-10T04:29:11;6.50;99.90
14755;DHT22;7469;50.906;6.952;2023-01-10T04:31:39;6.40;99.90
14755;DHT22;7469;50.906;6.952;2023-01-10T04:34:08;6.40;99.90
14755;DHT22;7469;50.906;6.952;2023-01-10T04:36:36;6.30;99.90
14755;DHT22;7469;50.906;6.952;2023-01-10T04:39:04;6.30;99.90
14755;DHT22;7469;50.906;6.952;2023-01-10T04:41:32;6.30;99.90
14755;DHT22;7469;50.906;6.952;2023-01-10T04:44:02;6.20;99.90
14755;DHT22;7469;50.906;6.952;2023-01-10T04:46:30;6.20;99.90
14755;DHT22;7469;50.906;6.952;2023-01-10T04:48:58;6.10;99.90
14755;DHT22;7469;50.906;6.952;2023-01-10T04:51:26;6.20;99.90
14755;DHT22;7469;50.906;6.952;2023-01-10T04:53:55;6.20;99.90
14755;DHT22;7469;50.906;6.952;2023-01-10T04:56:23;6.20;99.90
14755;DHT22;7469;50.906;6.952;2023-01-10T04:58:51;6.20;99.90
14755;DHT22;7469;50.906;6.952;2023-01-10T05:01:23;6.20;99.90
14755;DHT22;7469;50.906;6.952;2023-01-10T05:03:53;6.30;99.90
14755;DHT22;7469;50.906;6.952;2023-01-10T05:06:21;6.30;99.90
14755;DHT22;7469;50.906;6.952;2023-01-10T05:08:50;6.30;99.90
14755;DHT22;7469;50.906;6.952;2023-01-10T05:11:18;6.30;99.90
14755;DHT22;7469;50.906;6.952;2023-01-10T05:13:45;6.40;99.90
14755;DHT22;7469;50.906;6.952;2023-01-10T05:16:14;6.40;99.90
14755;DHT22;7469;50.906;6.952;2023-01-10T05:18:43;6.40;99.90
14755;DHT22;7469;50.906;6.952;2023-01-10T05:21:12;6.40;99.90
14755;DHT22;7469;50.906;6.952;2023-01-10T05:23:40;6.40;99.90
14755;DHT22;7469;50.906;6.952;2023-01-10T05:26:09;6.40;99.90
14755;DHT22;7469;50.906;6.952;2023-01-10T05:28:38;6.40;99.90
14755;DHT22;7469;50.906;6.952;2023-01-10T05:31:07;6.40;99.90
14755;DHT22;7469;50.906;6.952;2023-01-10T05:33:36;6.50;99.90
14755;DHT22;7469;50.906;6.952;2023-01-10T05:36:06;6.50;99.90
14755;DHT22;7469;50.906;6.952;2023-01-10T05:38:34;6.50;99.90
14755;DHT22;7469;50.906;6.952;2023-01-10T05:41:02;6.50;99.90
14755;DHT22;7469;50.906;6.952;2023-01-10T05:43:30;6.50;99.90
14755;DHT22;7469;50.906;6.952;2023-01-10T05:45:58;6.50;99.90
14755;DHT22;7469;50.906;6.952;2023-01-10T05:48:26;6.50;99.90
14755;DHT22;7469;50.906;6.952;2023-01-10T05:50:54;6.50;99.90
14755;DHT22;7469;50.906;6.952;2023-01-10T05:53:24;6.40;99.90
14755;DHT22;7469;50.906;6.952;2023-01-10T05:55:53;6.50;99.90
14755;DHT22;7469;50.906;6.952;2023-01-10T05:58:22;6.50;99.90
14755;DHT22;7469;50.906;6.952;2023-01-10T06:00:51;6.50;99.90
14755;DHT22;7469;50.906;6.952;2023-01-10T06:03:19;6.40;99.90
14755;DHT22;7469;50.906;6.952;2023-01-10T06:05:48;6.40;99.90
14755;DHT22;7469;50.906;6.952;2023-01-10T06:08:15;6.30;99.90
14755;DHT22;7469;50.906;6.952;2023-01-10T06:10:45;6.30;99.90
14755;DHT22;7469;50.906;6.952;2023-01-10T06:13:13;6.20;99.90
14755;DHT22;7469;50.906;6.952;2023-01-10T06:15:41;6.10;99.90
14755;DHT22;7469;50.906;6.952;2023-01-10T06:18:09;6.10;99.90
14755;DHT22;7469;50.906;6.952;2023-01-10T06:20:38;6.10;99.90
14755;DHT22;7469;50.906;6.952;2023-01-10T06:23:06;6.10;99.90
14755;DHT22;7469;50.906;6.952;2023-01-10T06:25:35;6.20;99.90
14755;DHT22;7469;50.906;6.952;2023-01-10T06:28:08;6.10;99.90
14755;DHT22;7469;50.906;6.952;2023-01-10T06:30:37;6.20;99.90
14755;DHT22;7469;50.906;6.952;2023-01-10T06:33:07;6.20;99.90
14755;DHT22;7469;50.906;6.952;2023-01-10T06:35:36;6.20;99.90
14755;DHT22;7469;50.906;6.952;2023-01-10T06:38:04;6.20;99.90
14755;DHT22;7469;50.906;6.952;2023-01-10T06:40:32;6.20;99.90
14755;DHT22;7469;50.906;6.952;2023-01-10T06:43:00;6.20;99.90
14755;DHT22;7469;50.906;6.952;2023-01-10T06:45:29;6.10;99.90
14755;DHT22;7469;50.906;6.952;2023-01-10T06:47:57;6.10;99.90
14755;DHT22;7469;50.906;6.952;2023-01-10T06:50:25;6.10;99.90
14755;DHT22;7469;50.906;6.952;2023-01-10T06:52:54;6.10;99.90
14755;DHT22;7469;50.906;6.952;2023-01-10T06:55:23;6.10;99.90
14755;DHT22;7469;50.906;6.952;2023-01-10T06:57:54;6.10;99.90
14755;DHT22;7469;50.906;6.952;2023-01-10T07:00:23;6.10;99.90
14755;DHT22;7469;50.906;6.952;2023-01-10T07:02:54;6.10;99.90
14755;DHT22;7469;50.906;6.952;2023-01-10T07:05:24;6.10;99.90
14755;DHT22;7469;50.906;6.952;2023-01-10T07:07:52;6.10;99.90
14755;DHT22;7469;50.906;6.952;2023-01-10T07:10:20;6.00;99.90
14755;DHT22;7469;50.906;6.952;2023-01-10T07:12:48;6.00;99.90
14755;DHT22;7469;50.906;6.952;2023-01-10T07:15:16;6.00;99.90
14755;DHT22;7469;50.906;6.952;2023-01-10T07:17:44;6.00;99.90
14755;DHT22;7469;50.906;6.952;2023-01-10T07:20:13;6.00;99.90
14755;DHT22;7469;50.906;6.952;2023-01-10T07:22:41;6.00;99.90
14755;DHT22;7469;50.906;6.952;2023-01-10T07:25:09;6.00;99.90
14755;DHT22;7469;50.906;6.952;2023-01-10T07:27:37;6.00;99.90
14755;DHT22;7469;50.906;6.952;2023-01-10T07:30:10;6.00;99.90
14755;DHT22;7469;50.906;6.952;2023-01-10T07:32:38;6.00;99.90
14755;DHT22;7469;50.906;6.952;2023-01-10T07:35:08;6.00;99.90
14755;DHT22;7469;50.906;6.952;2023-01-10T07:37:37;6.00;99.90
14755;DHT22;7469;50.906;6.952;2023-01-10T07:40:07;6.10;99.90
14755;DHT22;7469;50.906;6.952;2023-01-10T07:42:35;6.10;99.90
14755;DHT22;7469;50.906;6.952;2023-01-10T07:45:03;6.10;99.90
14755;DHT22;7469;50.906;6.952;2023-01-10T07:47:32;6.10;99.90
14755;DHT22;7469;50.906;6.952;2023-01-10T07:50:00;6.10;99.90
14755;DHT22;7469;50.906;6.952;2023-01-10T07:52:29;6.10;99.90
14755;DHT22;7469;50.906;6.952;2023-01-10T07:54:58;6.10;99.90
14755;DHT22;7469;50.906;6.952;2023-01-10T07:57:26;6.10;99.90
14755;DHT22;7469;50.906;6.952;2023-01-10T07:59:54;6.10;99.90
14755;DHT22;7469;50.906;6.952;2023-01-10T08:02:22;6.10;99.90
14755;DHT22;7469;50.906;6.952;2023-01-10T08:04:50;6.10;99.90
14755;DHT22;7469;50.906;6.952;2023-01-10T08:07:18;6.00;99.90
14755;DHT22;7469;50.906;6.952;2023-01-10T08:09:45;6.10;99.90
14755;DHT22;7469;50.906;6.952;2023-01-10T08:12:15;6.00;99.90
14755;DHT22;7469;50.906;6.952;2023-01-10T08:14:43;6.00;99.90
14755;DHT22;7469;50.906;6.952;2023-01-10T08:17:11;6.00;99.90
14755;DHT22;7469;50.906;6.952;2023-01-10T08:19:39;6.00;99.90
14755;DHT22;7469;50.906;6.952;2023-01-10T08:22:07;6.00;99.90
14755;DHT22;7469;50.906;6.952;2023-01-10T08:24:35;6.00;99.90
14755;DHT22;7469;50.906;6.952;2023-01-10T08:27:03;6.00;99.90
14755;DHT22;7469;50.906;6.952;2023-01-10T08:29:32;6.10;99.90
14755;DHT22;7469;50.906;6.952;2023-01-10T08:32:00;6.10;99.90
14755;DHT22;7469;50.906;6.952;2023-01-10T08:34:29;6.20;99.90
14755;DHT22;7469;50.906;6.952;2023-01-10T08:36:56;6.20;99.90
14755;DHT22;7469;50.906;6.952;2023-01-10T08:39:24;6.30;99.90
14755;DHT22;7469;50.906;6.952;2023-01-10T08:41:52;6.30;99.90
14755;DHT22;7469;50.906;6.952;2023-01-10T08:44:20;6.40;99.90
14755;DHT22;7469;50.906;6.952;2023-01-10T08:46:50;6.50;99.90
14755;DHT22;7469;50.906;6.952;2023-01-10T08:49:18;6.70;99.90
14755;DHT22;7469;50.906;6.952;2023-01-10T08:51:46;6.80;99.90
14755;DHT22;7469;50.906;6.952;2023-01-10T08:54:14;7.00;99.90
14755;DHT22;7469;50.906;6.952;2023-01-10T08:56:42;7.10;99.90
14755;DHT22;7469;50.906;6.952;2023-01-10T08:59:10;7.20;99.90
14755;DHT22;7469;50.906;6.952;2023-01-10T09:01:37;7.20;99.90
14755;DHT22;7469;50.906;6.952;2023-01-10T09:04:07;7.30;99.90
14755;DHT22;7469;50.906;6.952;2023-01-10T09:06:35;7.30;99.90
14755;DHT22;7469;50.906;6.952;2023-01-10T09:09:03;7.50;99.90
14755;DHT22;7469;50.906;6.952;2023-01-10T09:11:31;7.70;99.90
14755;DHT22;7469;50.906;6.952;2023-01-10T09:13:59;8.10;99.90
14755;DHT22;7469;50.906;6.952;2023-01-10T09:16:27;8.60;99.90
14755;DHT22;7469;50.906;6.952;2023-01-10T09:18:56;9.30;99.90
14755;DHT22;7469;50.906;6.952;2023-01-10T09:21:26;10.00;99.90
14755;DHT22;7469;50.906;6.952;2023-01-10T09:23:54;10.70;99.90
14755;DHT22;7469;50.906;6.952;2023-01-10T09:26:22;11.40;99.90
14755;DHT22;7469;50.906;6.952;2023-01-10T09:28:50;12.10;99.90
14755;DHT22;7469;50.906;6.952;2023-01-10T09:31:18;12.80;99.90
14755;DHT22;7469;50.906;6.952;2023-01-10T09:33:46;13.30;99.90
14755;DHT22;7469;50.906;6.952;2023-01-10T09:36:15;13.70;99.90
14755;DHT22;7469;50.906;6.952;2023-01-10T09:38:44;14.20;99.90
14755;DHT22;7469;50.906;6.952;2023-01-10T09:41:27;14.70;99.90
14755;DHT22;7469;50.906;6.952;2023-01-10T09:44:04;15.40;99.90
14755;DHT22;7469;50.906;6.952;2023-01-10T09:46:41;15.90;99.90
14755;DHT22;7469;50.906;6.952;2023-01-10T09:49:20;16.20;99.90
14755;DHT22;7469;50.906;6.952;2023-01-10T09:51:51;16.50;99.90
14755;DHT22;7469;50.906;6.952;2023-01-10T09:54:25;16.70;99.90
14755;DHT22;7469;50.906;6.952;2023-01-10T09:56:54;16.90;99.90
14755;DHT22;7469;50.906;6.952;2023-01-10T09:59:24;17.10;99.90
14755;DHT22;7469;50.906;6.952;2023-01-10T10:01:58;17.00;99.90
14755;DHT22;7469;50.906;6.952;2023-01-10T10:04:32;17.00;99.90
14755;DHT22;7469;50.906;6.952;2023-01-10T10:07:02;17.10;99.90
14755;DHT22;7469;50.906;6.952;2023-01-10T10:09:33;17.10;99.90
14755;DHT22;7469;50.906;6.952;2023-01-10T10:12:09;17.20;99.90
14755;DHT22;7469;50.906;6.952;2023-01-10T10:14:56;17.10;99.90
14755;DHT22;7469;50.906;6.952;2023-01-10T10:17:38;16.90;99.90
14755;DHT22;7469;50.906;6.952;2023-01-10T10:20:38;16.60;99.90
14755;DHT22;7469;50.906;6.952;2023-01-10T10:23:30;16.50;99.90
14755;DHT22;7469;50.906;6.952;2023-01-10T10:26:06;16.40;99.90
14755;DHT22;7469;50.906;6.952;2023-01-10T10:29:00;16.30;99.90
14755;DHT22;7469;50.906;6.952;2023-01-10T10:31:47;16.20;99.90
14755;DHT22;7469;50.906;6.952;2023-01-10T10:34:23;16.20;99.90
14755;DHT22;7469;50.906;6.952;2023-01-10T10:36:54;16.20;99.90
14755;DHT22;7469;50.906;6.952;2023-01-10T10:39:37;16.10;99.90
14755;DHT22;7469;50.906;6.952;2023-01-10T10:42:11;16.10;99.90
14755;DHT22;7469;50.906;6.952;2023-01-10T10:44:43;16.10;99.90
14755;DHT22;7469;50.906;6.952;2023-01-10T10:47:14;16.20;99.90
14755;DHT22;7469;50.906;6.952;2023-01-10T10:49:46;16.20;99.90
14755;DHT22;7469;50.906;6.952;2023-01-10T10:52:21;16.30;99.90
14755;DHT22;7469;50.906;6.952;2023-01-10T10:54:50;16.40;99.80
14755;DHT22;7469;50.906;6.952;2023-01-10T10:57:21;16.50;99.30
14755;DHT22;7469;50.906;6.952;2023-01-10T10:59:51;16.60;99.20
14755;DHT22;7469;50.906;6.952;2023-01-10T11:02:23;16.70;98.70
14755;DHT22;7469;50.906;6.952;2023-01-10T11:04:55;16.70;98.00
14755;DHT22;7469;50.906;6.952;2023-01-10T11:07:24;16.60;97.80
14755;DHT22;7469;50.906;6.952;2023-01-10T11:09:54;16.60;97.80
14755;DHT22;7469;50.906;6.952;2023-01-10T11:12:37;16.30;97.50
14755;DHT22;7469;50.906;6.952;2023-01-10T11:15:10;16.10;97.90
14755;DHT22;7469;50.906;6.952;2023-01-10T11:17:38;15.80;97.80
14755;DHT22;7469;50.906;6.952;2023-01-10T11:20:14;15.40;98.20
14755;DHT22;7469;50.906;6.952;2023-01-10T11:22:46;15.00;98.00
14755;DHT22;7469;50.906;6.952;2023-01-10T11:25:17;14.50;98.40
14755;DHT22;7469;50.906;6.952;2023-01-10T11:27:49;14.20;98.80
14755;DHT22;7469;50.906;6.952;2023-01-10T11:30:21;13.90;99.20
14755;DHT22;7469;50.906;6.952;2023-01-10T11:32:52;13.60;99.50
14755;DHT22;7469;50.906;6.952;2023-01-10T11:35:24;13.20;99.70
14755;DHT22;7469;50.906;6.952;2023-01-10T11:38:00;12.80;99.90
14755;DHT22;7469;50.906;6.952;2023-01-10T11:40:29;12.60;99.90
14755;DHT22;7469;50.906;6.952;2023-01-10T11:42:59;12.40;99.90
14755;DHT22;7469;50.906;6.952;2023-01-10T11:45:31;12.30;99.90
14755;DHT22;7469;50.906;6.952;2023-01-10T11:48:06;12.10;99.90
14755;DHT22;7469;50.906;6.952;2023-01-10T11:50:36;11.90;99.90
14755;DHT22;7469;50.906;6.952;2023-01-10T11:53:06;11.90;99.90
14755;DHT22;7469;50.906;6.952;2023-01-10T11:55:36;11.80;99.90
14755;DHT22;7469;50.906;6.952;2023-01-10T11:58:07;11.70;99.90
14755;DHT22;7469;50.906;6.952;2023-01-10T12:00:40;11.60;99.90
14755;DHT22;7469;50.906;6.952;2023-01-10T12:03:16;11.50;99.90
14755;DHT22;7469;50.906;6.952;2023-01-10T12:05:52;11.40;99.90
14755;DHT22;7469;50.906;6.952;2023-01-10T12:08:26;11.30;99.90
14755;DHT22;7469;50.906;6.952;2023-01-10T12:11:00;11.20;99.90
14755;DHT22;7469;50.906;6.952;2023-01-10T12:13:44;11.20;99.90
14755;DHT22;7469;50.906;6.952;2023-01-10T12:16:18;11.20;99.90
14755;DHT22;7469;50.906;6.952;2023-01-10T12:18:49;11.30;99.90
14755;DHT22;7469;50.906;6.952;2023-01-10T12:21:22;11.30;99.90
14755;DHT22;7469;50.906;6.952;2023-01-10T12:23:53;11.20;99.90
14755;DHT22;7469;50.906;6.952;2023-01-10T12:26:21;11.00;99.90
14755;DHT22;7469;50.906;6.952;2023-01-10T12:28:52;10.90;99.90
14755;DHT22;7469;50.906;6.952;2023-01-10T12:31:25;10.80;99.90
14755;DHT22;7469;50.906;6.952;2023-01-10T12:33:58;10.60;99.90
14755;DHT22;7469;50.906;6.952;2023-01-10T12:36:34;10.50;99.90
14755;DHT22;7469;50.906;6.952;2023-01-10T12:39:11;10.40;99.90
14755;DHT22;7469;50.906;6.952;2023-01-10T12:41:47;10.30;99.90
14755;DHT22;7469;50.906;6.952;2023-01-10T12:44:38;10.20;99.90
14755;DHT22;7469;50.906;6.952;2023-01-10T12:47:16;10.10;99.90
14755;DHT22;7469;50.906;6.952;2023-01-10T12:49:50;10.00;99.90
14755;DHT22;7469;50.906;6.952;2023-01-10T12:52:26;9.90;99.90
14755;DHT22;7469;50.906;6.952;2023-01-10T12:54:55;9.80;99.90
14755;DHT22;7469;50.906;6.952;2023-01-10T12:57:27;9.80;99.90
14755;DHT22;7469;50.906;6.952;2023-01-10T13:00:00;9.80;99.90
14755;DHT22;7469;50.906;6.952;2023-01-10T13:02:37;9.70;99.90
14755;DHT22;7469;50.906;6.952;2023-01-10T13:05:14;9.70;99.90
14755;DHT22;7469;50.906;6.952;2023-01-10T13:07:45;9.60;99.90
14755;DHT22;7469;50.906;6.952;2023-01-10T13:10:17;9.60;99.90
14755;DHT22;7469;50.906;6.952;2023-01-10T13:12:50;9.60;99.90
14755;DHT22;7469;50.906;6.952;2023-01-10T13:15:23;9.60;99.90
14755;DHT22;7469;50.906;6.952;2023-01-10T13:17:56;9.50;99.90
14755;DHT22;7469;50.906;6.952;2023-01-10T13:20:36;9.50;99.90
14755;DHT22;7469;50.906;6.952;2023-01-10T13:23:26;9.50;99.90
14755;DHT22;7469;50.906;6.952;2023-01-10T13:25:58;9.50;99.90
14755;DHT22;7469;50.906;6.952;2023-01-10T13:28:28;9.50;99.90
14755;DHT22;7469;50.906;6.952;2023-01-10T13:30:59;9.50;99.90
14755;DHT22;7469;50.906;6.952;2023-01-10T13:33:29;9.40;99.90
14755;DHT22;7469;50.906;6.952;2023-01-10T13:36:07;9.40;99.90
14755;DHT22;7469;50.906;6.952;2023-01-10T13:38:44;9.40;99.90
14755;DHT22;7469;50.906;6.952;2023-01-10T13:41:14;9.30;99.90
14755;DHT22;7469;50.906;6.952;2023-01-10T13:44:02;9.20;99.90
14755;DHT22;7469;50.906;6.952;2023-01-10T13:46:49;9.20;99.90
14755;DHT22;7469;50.906;6.952;2023-01-10T13:52:29;9.10;99.90
14755;DHT22;7469;50.906;6.952;2023-01-10T13:54:59;9.00;99.90
14755;DHT22;7469;50.906;6.952;2023-01-10T13:57:50;9.00;99.90
14755;DHT22;7469;50.906;6.952;2023-01-10T14:03:45;8.90;99.90
14755;DHT22;7469;50.906;6.952;2023-01-10T14:06:32;8.90;99.90
14755;DHT22;7469;50.906;6.952;2023-01-10T14:09:31;8.80;99.90
14755;DHT22;7469;50.906;6.952;2023-01-10T14:12:01;8.70;99.90
14755;DHT22;7469;50.906;6.952;2023-01-10T14:14:32;8.70;99.90
14755;DHT22;7469;50.906;6.952;2023-01-10T14:17:18;8.60;99.90
14755;DHT22;7469;50.906;6.952;2023-01-10T14:19:59;8.60;99.90
14755;DHT22;7469;50.906;6.952;2023-01-10T14:22:30;8.50;99.90
14755;DHT22;7469;50.906;6.952;2023-01-10T14:24:59;8.50;99.90
14755;DHT22;7469;50.906;6.952;2023-01-10T14:27:41;8.50;99.90
14755;DHT22;7469;50.906;6.952;2023-01-10T14:30:16;8.40;99.90
14755;DHT22;7469;50.906;6.952;2023-01-10T14:32:47;8.40;99.90
14755;DHT22;7469;50.906;6.952;2023-01-10T14:35:21;8.40;99.90
14755;DHT22;7469;50.906;6.952;2023-01-10T14:37:53;8.40;99.90
14755;DHT22;7469;50.906;6.952;2023-01-10T14:40:27;8.40;99.90
14755;DHT22;7469;50.906;6.952;2023-01-10T14:42:56;8.30;99.90
14755;DHT22;7469;50.906;6.952;2023-01-10T14:45:33;8.30;99.90
14755;DHT22;7469;50.906;6.952;2023-01-10T14:48:17;8.30;99.90
14755;DHT22;7469;50.906;6.952;2023-01-10T14:50:47;8.20;99.90
14755;DHT22;7469;50.906;6.952;2023-01-10T14:53:25;8.20;99.90
14755;DHT22;7469;50.906;6.952;2023-01-10T14:55:53;8.20;99.90
14755;DHT22;7469;50.906;6.952;2023-01-10T14:58:21;8.20;99.90
14755;DHT22;7469;50.906;6.952;2023-01-10T15:00:50;8.20;99.90
14755;DHT22;7469;50.906;6.952;2023-01-10T15:03:22;8.20;99.90
14755;DHT22;7469;50.906;6.952;2023-01-10T15:05:53;8.20;99.90
14755;DHT22;7469;50.906;6.952;2023-01-10T15:08:24;8.20;99.90
14755;DHT22;7469;50.906;6.952;2023-01-10T15:10:55;8.20;99.90
14755;DHT22;7469;50.906;6.952;2023-01-10T15:13:27;8.20;99.90
14755;DHT22;7469;50.906;6.952;2023-01-10T15:15:56;8.10;99.90
14755;DHT22;7469;50.906;6.952;2023-01-10T15:18:30;8.10;99.90
14755;DHT22;7469;50.906;6.952;2023-01-10T15:21:04;8.10;99.90
14755;DHT22;7469;50.906;6.952;2023-01-10T15:23:34;8.10;99.90
14755;DHT22;7469;50.906;6.952;2023-01-10T15:26:04;8.10;99.90
14755;DHT22;7469;50.906;6.952;2023-01-10T15:28:33;8.10;99.90
14755;DHT22;7469;50.906;6.952;2023-01-10T15:31:03;8.10;99.90
14755;DHT22;7469;50.906;6.952;2023-01-10T15:33:32;8.10;99.90
14755;DHT22;7469;50.906;6.952;2023-01-10T15:36:10;8.10;99.90
14755;DHT22;7469;50.906;6.952;2023-01-10T15:38:43;8.10;99.90
14755;DHT22;7469;50.906;6.952;2023-01-10T15:41:16;8.10;99.90
14755;DHT22;7469;50.906;6.952;2023-01-10T15:43:45;8.10;99.90
14755;DHT22;7469;50.906;6.952;2023-01-10T15:46:20;8.10;99.90
14755;DHT22;7469;50.906;6.952;2023-01-10T15:48:59;8.10;99.90
14755;DHT22;7469;50.906;6.952;2023-01-10T15:51:32;8.00;99.90
14755;DHT22;7469;50.906;6.952;2023-01-10T15:54:02;8.00;99.90
14755;DHT22;7469;50.906;6.952;2023-01-10T15:56:34;8.00;99.90
14755;DHT22;7469;50.906;6.952;2023-01-10T15:59:04;8.00;99.90
14755;DHT22;7469;50.906;6.952;2023-01-10T16:01:52;8.00;99.90
14755;DHT22;7469;50.906;6.952;2023-01-10T16:04:21;7.90;99.90
14755;DHT22;7469;50.906;6.952;2023-01-10T16:07:03;7.90;99.90
14755;DHT22;7469;50.906;6.952;2023-01-10T16:09:31;7.80;99.90
14755;DHT22;7469;50.906;6.952;2023-01-10T16:11:59;7.80;99.90
14755;DHT22;7469;50.906;6.952;2023-01-10T16:14:45;7.70;99.90
14755;DHT22;7469;50.906;6.952;2023-01-10T16:17:12;7.70;99.90
14755;DHT22;7469;50.906;6.952;2023-01-10T16:19:40;7.60;99.90
14755;DHT22;7469;50.906;6.952;2023-01-10T16:22:16;7.60;99.90
14755;DHT22;7469;50.906;6.952;2023-01-10T16:24:44;7.50;99.90
14755;DHT22;7469;50.906;6.952;2023-01-10T16:27:13;7.50;99.90
14755;DHT22;7469;50.906;6.952;2023-01-10T16:29:41;7.40;99.90
14755;DHT22;7469;50.906;6.952;2023-01-10T16:32:12;7.40;99.90
14755;DHT22;7469;50.906;6.952;2023-01-10T16:34:41;7.30;99.90